createdAt,value
2019-03-12T00:00:46.370Z,91.02
2019-03-12T00:03:21.986Z,90.93
2019-03-12T00:05:55.861Z,91.60
2019-03-12T00:08:29.767Z,91.89
2019-03-12T00:11:05.459Z,92.22
2019-03-12T00:13:41.176Z,92.45
2019-03-12T00:16:15.059Z,92.46
2019-03-12T00:18:48.909Z,92.40
2019-03-12T00:21:22.987Z,92.61
2019-03-12T00:23:58.569Z,92.95
2019-03-12T00:26:32.442Z,93.02
2019-03-12T00:29:07.750Z,92.64
2019-03-12T00:31:41.762Z,92.47
2019-03-12T00:34:15.879Z,92.50
2019-03-12T00:36:49.936Z,92.51
2019-03-12T00:39:23.753Z,92.40
2019-03-12T00:41:58.833Z,92.30
2019-03-12T00:44:34.471Z,92.33
2019-03-12T00:47:08.100Z,92.39
2019-03-12T00:49:41.829Z,92.28
2019-03-12T00:52:15.489Z,92.13
2019-03-12T00:54:50.942Z,91.98
2019-03-12T00:57:24.664Z,91.92
2019-03-12T00:59:58.436Z,91.74
2019-03-12T01:02:32.369Z,91.67
2019-03-12T01:05:06.416Z,91.18
2019-03-12T01:07:41.307Z,91.62
2019-03-12T01:10:15.994Z,92.16
2019-03-12T01:12:49.865Z,92.21
2019-03-12T01:15:23.693Z,92.21
2019-03-12T01:17:58.791Z,91.93
2019-03-12T01:20:32.813Z,91.83
2019-03-12T01:23:06.547Z,91.83
2019-03-12T01:25:40.923Z,91.85
2019-03-12T01:28:15.249Z,92.09
2019-03-12T01:30:52.327Z,92.42
2019-03-12T01:33:30.020Z,92.49
2019-03-12T01:36:04.405Z,92.50
2019-03-12T01:38:38.155Z,92.86
2019-03-12T01:41:11.845Z,92.83
2019-03-12T01:43:46.115Z,92.86
2019-03-12T01:46:21.204Z,92.99
2019-03-12T01:48:56.756Z,92.63
2019-03-12T01:51:31.274Z,92.69
2019-03-12T01:54:07.224Z,93.49
2019-03-12T01:56:42.024Z,94.10
2019-03-12T01:59:15.944Z,93.92
2019-03-12T02:01:51.238Z,93.75
2019-03-12T02:04:25.025Z,93.26
2019-03-12T02:06:58.851Z,93.42
2019-03-12T02:09:32.892Z,93.55
2019-03-12T02:12:07.072Z,93.45
2019-03-12T02:14:41.899Z,93.43
2019-03-12T02:17:15.916Z,93.31
2019-03-12T02:19:50.678Z,93.54
2019-03-12T02:22:24.440Z,93.40
2019-03-12T02:24:59.292Z,93.33
2019-03-12T02:27:33.093Z,93.83
2019-03-12T02:30:09.481Z,93.66
2019-03-12T02:32:45.068Z,93.80
2019-03-12T02:35:20.170Z,94.34
2019-03-12T02:37:56.811Z,94.34
2019-03-12T02:40:31.659Z,94.24
2019-03-12T02:43:05.455Z,93.93
2019-03-12T02:45:39.379Z,93.49
2019-03-12T02:48:13.302Z,93.12
2019-03-12T02:50:47.405Z,93.34
2019-03-12T02:53:21.177Z,93.75
2019-03-12T02:55:54.939Z,93.76
2019-03-12T02:58:28.712Z,93.74
2019-03-12T03:01:02.635Z,93.50
2019-03-12T03:03:37.130Z,93.81
2019-03-12T03:06:35.712Z,93.77
2019-03-12T03:09:09.852Z,93.89
2019-03-12T03:11:44.478Z,93.66
2019-03-12T03:14:41.204Z,93.58
2019-03-12T03:17:18.170Z,93.51
2019-03-12T03:19:52.367Z,93.33
2019-03-12T03:22:26.026Z,93.14
2019-03-12T03:24:59.767Z,93.34
2019-03-12T03:27:33.442Z,93.29
2019-03-12T03:30:11.000Z,92.97
2019-03-12T03:32:47.356Z,92.55
2019-03-12T03:35:23.356Z,92.50
2019-03-12T03:37:57.165Z,92.17
2019-03-12T03:40:32.266Z,91.77
2019-03-12T03:43:06.050Z,91.86
2019-03-12T03:45:39.877Z,92.06
2019-03-12T03:48:13.582Z,92.10
2019-03-12T03:50:47.286Z,91.60
2019-03-12T03:53:20.977Z,91.59
2019-03-12T03:55:55.163Z,91.42
2019-03-12T03:58:30.179Z,91.34
2019-03-12T04:01:04.186Z,91.38
2019-03-12T04:03:37.966Z,91.51
2019-03-12T04:06:11.972Z,91.54
2019-03-12T04:08:46.931Z,91.66
2019-03-12T04:11:22.612Z,91.77
2019-03-12T04:13:57.492Z,91.68
2019-03-12T04:16:31.389Z,91.80
2019-03-12T04:19:06.553Z,91.75
2019-03-12T04:21:40.343Z,91.69
2019-03-12T04:24:14.012Z,91.41
2019-03-12T04:26:51.889Z,91.29
2019-03-12T04:29:25.647Z,91.30
2019-03-12T04:31:59.341Z,91.58
2019-03-12T04:34:40.630Z,92.01
2019-03-12T04:37:14.540Z,91.82
2019-03-12T04:39:50.233Z,91.82
2019-03-12T04:42:26.571Z,91.88
2019-03-12T04:45:00.430Z,91.88
2019-03-12T04:47:34.308Z,91.78
2019-03-12T04:50:09.877Z,91.53
2019-03-12T04:52:43.848Z,91.45
2019-03-12T04:55:18.676Z,90.62
2019-03-12T04:57:53.513Z,90.12
2019-03-12T05:00:27.443Z,90.00
2019-03-12T05:03:01.411Z,89.55
2019-03-12T05:05:35.341Z,89.55
2019-03-12T05:08:09.141Z,89.62
2019-03-12T05:10:42.962Z,89.97
2019-03-12T05:13:17.759Z,90.00
2019-03-12T05:15:51.494Z,90.24
2019-03-12T05:18:25.507Z,90.44
2019-03-12T05:20:59.606Z,90.70
2019-03-12T05:23:34.475Z,90.74
2019-03-12T05:26:08.369Z,90.78
2019-03-12T05:28:43.718Z,90.93
2019-03-12T05:31:17.608Z,90.61
2019-03-12T05:33:51.282Z,90.37
2019-03-12T05:36:25.769Z,90.47
2019-03-12T05:38:59.498Z,90.46
2019-03-12T05:41:33.225Z,90.55
2019-03-12T05:44:07.719Z,90.57
2019-03-12T05:46:41.804Z,90.66
2019-03-12T05:49:17.451Z,90.64
2019-03-12T05:51:52.990Z,89.89
2019-03-12T05:54:26.699Z,89.81
2019-03-12T05:57:00.312Z,89.55
2019-03-12T05:59:33.877Z,89.66
2019-03-12T06:02:07.583Z,89.06
2019-03-12T06:04:41.158Z,87.52
2019-03-12T06:07:15.311Z,84.87
2019-03-12T06:09:48.979Z,81.23
2019-03-12T06:12:23.824Z,78.14
2019-03-12T06:14:57.712Z,75.59
2019-03-12T06:17:31.572Z,72.87
2019-03-12T06:20:05.955Z,71.26
2019-03-12T06:22:41.772Z,70.44
2019-03-12T06:25:16.084Z,68.01
2019-03-12T06:27:49.871Z,66.56
2019-03-12T06:30:25.826Z,66.14
2019-03-12T06:33:05.902Z,66.75
2019-03-12T06:35:59.095Z,65.71
2019-03-12T06:38:45.127Z,62.13
2019-03-12T06:41:27.232Z,62.94
2019-03-12T06:44:13.518Z,61.64
2019-03-12T06:47:02.984Z,63.31
2019-03-12T06:49:54.082Z,65.58
2019-03-12T06:52:55.934Z,67.97
2019-03-12T06:55:54.811Z,71.59
2019-03-12T06:58:52.258Z,74.51
2019-03-12T07:01:48.894Z,76.49
2019-03-12T07:04:39.279Z,77.18
2019-03-12T07:07:41.599Z,77.95
2019-03-12T07:10:23.118Z,79.33
2019-03-12T07:13:21.652Z,80.03
2019-03-12T07:16:19.952Z,81.16
2019-03-12T07:19:02.153Z,81.56
2019-03-12T07:22:01.341Z,81.39
2019-03-12T07:24:46.923Z,81.76
2019-03-12T07:27:34.947Z,81.04
2019-03-12T07:30:31.676Z,80.43
2019-03-12T07:33:13.382Z,79.88
2019-03-12T07:36:04.094Z,78.84
2019-03-12T07:38:53.830Z,77.32
2019-03-12T07:41:46.469Z,73.01
2019-03-12T07:44:39.109Z,68.26
2019-03-12T07:47:42.185Z,69.54
2019-03-12T07:50:42.390Z,70.84
2019-03-12T07:53:58.852Z,71.52
2019-03-12T07:56:31.860Z,70.17
2019-03-12T07:59:37.597Z,70.83
2019-03-12T08:02:19.798Z,71.22
2019-03-12T08:05:02.916Z,67.79
2019-03-12T08:07:53.926Z,66.71
2019-03-12T08:10:47.169Z,68.76
2019-03-12T08:13:41.645Z,69.96
2019-03-12T08:16:37.048Z,69.78
2019-03-12T08:19:29.276Z,70.82
2019-03-12T08:22:28.400Z,70.99
2019-03-12T08:25:10.274Z,71.53
2019-03-12T08:28:08.928Z,71.51
2019-03-12T08:30:55.730Z,70.68
2019-03-12T08:33:50.857Z,70.51
2019-03-12T08:36:50.625Z,70.25
2019-03-12T08:39:46.029Z,69.93
2019-03-12T08:42:54.939Z,69.00
2019-03-12T08:45:48.896Z,68.76
2019-03-12T08:48:32.940Z,67.04
2019-03-12T08:51:19.546Z,66.08
2019-03-12T08:54:29.168Z,65.12
2019-03-12T08:57:17.156Z,65.68
2019-03-12T09:00:10.332Z,61.88
2019-03-12T09:02:54.593Z,61.26
2019-03-12T09:06:01.044Z,60.45
2019-03-12T09:09:00.044Z,58.97
2019-03-12T09:12:02.392Z,59.31
2019-03-12T09:14:59.705Z,60.11
2019-03-12T09:17:46.026Z,59.62
2019-03-12T09:20:28.839Z,58.65
2019-03-12T09:23:17.995Z,58.44
2019-03-12T09:26:00.171Z,59.52
2019-03-12T09:28:45.564Z,58.60
2019-03-12T09:31:36.668Z,57.49
2019-03-12T09:34:34.933Z,58.51
2019-03-12T09:37:42.618Z,58.10
2019-03-12T09:40:34.467Z,57.33
2019-03-12T09:43:26.356Z,56.68
2019-03-12T09:46:33.932Z,57.39
2019-03-12T09:49:19.407Z,57.39
2019-03-12T09:52:01.506Z,58.47
2019-03-12T09:54:55.683Z,58.64
2019-03-12T09:57:54.684Z,59.13
2019-03-12T10:00:45.964Z,60.00
2019-03-12T10:03:35.435Z,60.94
2019-03-12T10:06:30.828Z,62.07
2019-03-12T10:09:30.636Z,61.47
2019-03-12T10:12:26.642Z,61.18
2019-03-12T10:15:32.071Z,60.16
2019-03-12T10:18:25.835Z,59.96
2019-03-12T10:21:19.806Z,59.94
2019-03-12T10:24:00.062Z,58.84
2019-03-12T10:26:52.004Z,60.10
2019-03-12T10:29:37.047Z,59.81
2019-03-12T10:32:24.770Z,60.52
2019-03-12T10:35:29.493Z,60.89
2019-03-12T10:39:07.889Z,61.08
2019-03-12T10:42:06.948Z,61.00
2019-03-12T10:44:53.144Z,60.68
2019-03-12T10:47:29.642Z,62.18
2019-03-12T10:50:04.747Z,61.82
2019-03-12T10:52:38.554Z,61.63
2019-03-12T10:55:18.436Z,61.78
2019-03-12T10:57:52.921Z,61.89
2019-03-12T11:00:27.657Z,60.83
2019-03-12T11:03:01.692Z,59.53
2019-03-12T11:05:45.256Z,59.49
2019-03-12T11:08:11.132Z,58.66
2019-03-12T11:10:45.044Z,58.74
2019-03-12T11:13:20.067Z,57.96
2019-03-12T11:15:56.023Z,58.89
2019-03-12T11:18:30.859Z,57.85
2019-03-12T11:21:04.489Z,57.90
2019-03-12T11:23:40.058Z,57.80
2019-03-12T11:26:13.857Z,57.68
2019-03-12T11:28:47.557Z,57.37
2019-03-12T11:31:21.286Z,58.35
2019-03-12T11:33:56.977Z,58.31
2019-03-12T11:36:31.476Z,57.46
2019-03-12T11:39:06.043Z,57.21
2019-03-12T11:41:42.038Z,56.78
2019-03-12T11:44:16.398Z,56.11
2019-03-12T11:46:50.195Z,54.96
2019-03-12T11:49:24.212Z,55.16
2019-03-12T11:51:59.334Z,55.59
2019-03-12T11:54:35.048Z,55.36
2019-03-12T11:57:08.936Z,55.60
2019-03-12T11:59:43.719Z,55.19
2019-03-12T12:02:17.397Z,55.65
2019-03-12T12:04:51.495Z,56.44
2019-03-12T12:07:25.463Z,56.20
2019-03-12T12:10:02.072Z,56.36
2019-03-12T12:12:36.397Z,56.73
2019-03-12T12:15:11.514Z,56.19
2019-03-12T12:17:49.501Z,56.45
2019-03-12T12:20:29.706Z,56.05
2019-03-12T12:22:59.802Z,57.22
2019-03-12T12:25:33.604Z,57.23
2019-03-12T12:28:07.460Z,56.07
2019-03-12T12:30:41.201Z,56.16
2019-03-12T12:33:16.153Z,57.37
2019-03-12T12:35:53.492Z,56.13
2019-03-12T12:38:27.181Z,55.49
2019-03-12T12:41:01.048Z,55.92
2019-03-12T12:43:34.751Z,56.46
2019-03-12T12:46:09.871Z,56.05
2019-03-12T12:48:43.880Z,55.61
2019-03-12T12:51:17.832Z,54.87
2019-03-12T12:53:51.808Z,55.39
2019-03-12T12:56:27.587Z,55.09
2019-03-12T12:59:01.531Z,55.84
2019-03-12T13:01:35.299Z,56.22
2019-03-12T13:04:10.135Z,55.97
2019-03-12T13:06:43.867Z,55.88
2019-03-12T13:09:18.674Z,56.02
2019-03-12T13:11:52.480Z,56.29
2019-03-12T13:14:26.516Z,55.96
2019-03-12T13:17:01.233Z,55.94
2019-03-12T13:19:34.885Z,55.67
2019-03-12T13:22:09.623Z,56.25
2019-03-12T13:24:44.506Z,56.67
2019-03-12T13:27:20.594Z,56.70
2019-03-12T13:29:54.583Z,57.06
2019-03-12T13:32:28.828Z,58.36
2019-03-12T13:35:02.624Z,57.44
2019-03-12T13:37:39.356Z,57.54
2019-03-12T13:40:17.245Z,56.66
2019-03-12T13:42:51.357Z,56.72
2019-03-12T13:45:26.849Z,56.11
2019-03-12T13:48:00.805Z,56.97
2019-03-12T13:50:34.843Z,55.82
2019-03-12T13:53:08.868Z,56.34
2019-03-12T13:55:43.688Z,55.84
2019-03-12T13:58:19.575Z,55.38
2019-03-12T14:00:53.517Z,55.35
2019-03-12T14:03:28.438Z,55.23
2019-03-12T14:06:02.093Z,55.21
2019-03-12T14:08:35.796Z,55.42
2019-03-12T14:11:09.834Z,55.21
2019-03-12T14:13:45.463Z,55.32
2019-03-12T14:16:19.309Z,56.44
2019-03-12T14:18:53.058Z,55.47
2019-03-12T14:21:26.807Z,54.96
2019-03-12T14:24:03.571Z,55.39
2019-03-12T14:26:39.229Z,54.77
2019-03-12T14:29:14.730Z,54.54
2019-03-12T14:31:48.707Z,54.65
2019-03-12T14:34:27.059Z,54.08
2019-03-12T14:37:00.998Z,54.24
2019-03-12T14:39:35.097Z,54.04
2019-03-12T14:42:09.937Z,53.97
2019-03-12T14:44:43.720Z,54.03
2019-03-12T14:47:17.681Z,53.70
2019-03-12T14:49:51.303Z,52.97
2019-03-12T14:52:30.688Z,53.26
2019-03-12T14:55:05.991Z,53.00
2019-03-12T14:57:40.967Z,52.69
2019-03-12T15:00:24.791Z,52.83
2019-03-12T15:02:59.838Z,53.18
2019-03-12T15:05:33.848Z,52.98
2019-03-12T15:08:12.305Z,52.76
2019-03-12T15:10:46.277Z,52.30
2019-03-12T15:13:23.037Z,52.33
2019-03-12T15:15:56.759Z,52.37
2019-03-12T15:18:30.505Z,52.26
2019-03-12T15:21:06.088Z,52.45
2019-03-12T15:23:40.258Z,52.28
2019-03-12T15:26:15.981Z,51.72
2019-03-12T15:28:49.760Z,52.17
2019-03-12T15:31:23.502Z,51.61
2019-03-12T15:33:57.573Z,51.91
2019-03-12T15:36:31.249Z,50.81
2019-03-12T15:39:06.835Z,51.26
2019-03-12T15:41:41.803Z,51.31
2019-03-12T15:44:15.533Z,51.22
2019-03-12T15:46:49.456Z,52.87
2019-03-12T15:49:23.319Z,52.19
2019-03-12T15:51:57.530Z,52.18
2019-03-12T15:54:31.346Z,52.50
2019-03-12T15:57:05.438Z,52.35
2019-03-12T15:59:39.322Z,52.77
2019-03-12T16:02:13.240Z,52.31
2019-03-12T16:04:50.615Z,52.48
2019-03-12T16:07:27.264Z,52.55
2019-03-12T16:10:03.714Z,52.23
2019-03-12T16:12:38.770Z,52.23
2019-03-12T16:15:12.963Z,52.69
2019-03-12T16:17:50.678Z,52.75
2019-03-12T16:20:24.706Z,52.50
2019-03-12T16:22:58.994Z,52.36
2019-03-12T16:25:35.032Z,52.49
2019-03-12T16:28:09.155Z,52.81
2019-03-12T16:30:43.420Z,52.77
2019-03-12T16:33:18.585Z,52.97
2019-03-12T16:35:52.367Z,52.51
2019-03-12T16:38:26.832Z,53.00
2019-03-12T16:41:02.198Z,52.72
2019-03-12T16:43:36.054Z,53.03
2019-03-12T16:46:09.759Z,53.61
2019-03-12T16:48:43.564Z,53.15
2019-03-12T16:51:17.367Z,52.72
2019-03-12T16:53:51.274Z,53.16
2019-03-12T16:56:26.713Z,53.43
2019-03-12T16:59:00.704Z,53.50
2019-03-12T17:01:35.935Z,53.48
2019-03-12T17:04:09.843Z,53.42
2019-03-12T17:06:46.008Z,53.00
2019-03-12T17:09:22.637Z,53.25
2019-03-12T17:11:56.338Z,53.75
2019-03-12T17:14:38.850Z,53.51
2019-03-12T17:17:10.967Z,53.25
2019-03-12T17:19:45.553Z,53.86
2019-03-12T17:22:20.631Z,53.48
2019-03-12T17:24:54.276Z,54.06
2019-03-12T17:27:29.782Z,53.24
2019-03-12T17:30:06.038Z,52.83
2019-03-12T17:32:39.829Z,52.85
2019-03-12T17:35:16.678Z,53.35
2019-03-12T17:37:50.682Z,52.44
2019-03-12T17:40:24.486Z,52.92
2019-03-12T17:42:58.358Z,53.25
2019-03-12T17:45:32.189Z,52.21
2019-03-12T17:48:07.034Z,52.05
2019-03-12T17:50:41.237Z,52.44
2019-03-12T17:53:16.678Z,51.91
2019-03-12T17:55:52.302Z,51.12
2019-03-12T17:58:27.339Z,51.14
2019-03-12T18:01:01.210Z,51.18
2019-03-12T18:03:38.538Z,50.97
2019-03-12T18:06:12.430Z,50.76
2019-03-12T18:08:47.547Z,50.75
2019-03-12T18:11:21.745Z,50.34
2019-03-12T18:13:57.350Z,49.94
2019-03-12T18:16:41.125Z,49.64
2019-03-12T18:19:09.256Z,50.43
2019-03-12T18:21:45.015Z,49.53
2019-03-12T18:24:19.099Z,50.02
2019-03-12T18:26:53.041Z,49.01
2019-03-12T18:29:29.513Z,48.59
2019-03-12T18:32:04.909Z,48.74
2019-03-12T18:34:39.657Z,48.91
2019-03-12T18:37:13.477Z,48.85
2019-03-12T18:39:48.602Z,48.76
2019-03-12T18:42:23.037Z,48.53
2019-03-12T18:44:58.423Z,48.47
2019-03-12T18:47:32.632Z,48.87
2019-03-12T18:50:07.705Z,48.54
2019-03-12T18:52:42.787Z,48.85
2019-03-12T18:55:49.037Z,48.42
2019-03-12T18:58:25.146Z,47.95
2019-03-12T19:01:02.015Z,47.71
2019-03-12T19:03:38.286Z,47.62
2019-03-12T19:06:14.597Z,47.75
2019-03-12T19:08:49.052Z,47.64
2019-03-12T19:11:23.070Z,48.11
2019-03-12T19:13:57.061Z,48.09
2019-03-12T19:16:30.837Z,48.18
2019-03-12T19:19:07.347Z,48.41
2019-03-12T19:21:50.173Z,47.87
2019-03-12T19:24:29.111Z,47.88
2019-03-12T19:27:05.008Z,47.91
2019-03-12T19:29:40.444Z,47.54
2019-03-12T19:32:27.330Z,47.12
2019-03-12T19:35:01.353Z,47.27
2019-03-12T19:37:35.475Z,46.89
2019-03-12T19:40:14.959Z,46.42
2019-03-12T19:42:49.869Z,46.11
2019-03-12T19:45:23.678Z,46.08
2019-03-12T19:47:57.996Z,46.59
2019-03-12T19:50:32.829Z,46.86
2019-03-12T19:53:07.492Z,46.35
2019-03-12T19:55:45.784Z,46.03
2019-03-12T19:58:21.110Z,46.29
2019-03-12T20:01:01.419Z,46.50
2019-03-12T20:03:36.935Z,45.89
2019-03-12T20:06:11.006Z,45.49
2019-03-12T20:08:45.952Z,45.92
2019-03-12T20:12:31.204Z,45.68
2019-03-12T20:16:16.749Z,45.44
2019-03-12T20:19:54.002Z,45.65
2019-03-12T20:23:21.946Z,46.25
2019-03-12T20:26:49.787Z,45.96
2019-03-12T20:30:22.033Z,46.15
2019-03-12T20:33:49.691Z,46.39
2019-03-12T20:37:40.778Z,47.10
2019-03-12T20:41:13.942Z,46.41
2019-03-12T20:44:57.908Z,45.73
2019-03-12T20:48:43.663Z,44.93
2019-03-12T20:52:22.331Z,45.20
2019-03-12T20:56:08.190Z,45.68
2019-03-12T20:59:36.337Z,45.71
2019-03-12T21:03:36.614Z,45.86
2019-03-12T21:07:02.566Z,46.23
2019-03-12T21:10:56.650Z,46.27
2019-03-12T21:14:21.226Z,46.84
2019-03-12T21:17:44.141Z,46.75
2019-03-12T21:21:12.397Z,47.08
2019-03-12T21:24:31.468Z,46.70
2019-03-12T21:27:52.290Z,46.66
2019-03-12T21:30:30.373Z,46.21
2019-03-12T21:33:14.747Z,45.68
2019-03-12T21:35:41.174Z,45.80
2019-03-12T21:38:20.028Z,45.66
2019-03-12T21:40:55.573Z,44.86
2019-03-12T21:43:29.992Z,45.43
2019-03-12T21:46:05.235Z,45.51
2019-03-12T21:48:39.247Z,45.36
2019-03-12T21:51:13.349Z,45.73
2019-03-12T21:53:48.573Z,45.21
2019-03-12T21:56:22.394Z,45.13
2019-03-12T21:58:56.581Z,44.83
2019-03-12T22:01:31.468Z,45.09
2019-03-12T22:04:05.201Z,44.54
2019-03-12T22:06:38.998Z,45.27
2019-03-12T22:09:13.029Z,45.65
2019-03-12T22:11:47.039Z,46.25
2019-03-12T22:14:20.806Z,46.54
2019-03-12T22:16:58.367Z,47.47
2019-03-12T22:19:33.815Z,48.15
2019-03-12T22:22:22.432Z,48.74
2019-03-12T22:24:56.191Z,48.24
2019-03-12T22:27:30.943Z,48.26
2019-03-12T22:30:05.536Z,48.77
2019-03-12T22:32:41.715Z,48.62
2019-03-12T22:35:15.788Z,48.52
2019-03-12T22:37:52.296Z,48.77
2019-03-12T22:40:26.000Z,49.17
2019-03-12T22:42:59.826Z,49.72
2019-03-12T22:45:34.872Z,49.92
2019-03-12T22:48:10.765Z,50.80
2019-03-12T22:50:46.250Z,51.83
2019-03-12T22:53:23.062Z,52.72
2019-03-12T22:55:57.015Z,53.49
2019-03-12T22:58:32.036Z,53.96
2019-03-12T23:01:06.173Z,54.38
2019-03-12T23:03:41.430Z,54.84
2019-03-12T23:06:15.134Z,55.39
2019-03-12T23:08:49.915Z,56.10
2019-03-12T23:11:25.714Z,56.59
2019-03-12T23:14:00.411Z,57.44
2019-03-12T23:16:35.892Z,57.39
2019-03-12T23:19:10.049Z,57.76
2019-03-12T23:21:45.955Z,57.94
2019-03-12T23:24:19.680Z,58.32
2019-03-12T23:26:55.205Z,58.25
2019-03-12T23:29:31.172Z,58.87
2019-03-12T23:32:05.962Z,58.44
2019-03-12T23:34:40.264Z,58.72
2019-03-12T23:37:13.926Z,58.39
2019-03-12T23:39:47.608Z,58.07
2019-03-12T23:42:21.583Z,57.81
2019-03-12T23:44:55.470Z,57.41
2019-03-12T23:47:31.952Z,57.49
2019-03-12T23:50:09.025Z,57.16
2019-03-12T23:52:42.712Z,57.05
2019-03-12T23:55:18.067Z,56.67
2019-03-12T23:57:51.694Z,56.81
